Time;durP1;ratioP1;P1;durP2;ratioP2;P2;SDS_P1;SDS_P2;PMS_P1;PMS_P2;Temp;Humidity;BMP_temperature;BMP_pressure;BME280_temperature;BME280_humidity;BME280_pressure;Samples;Min_cycle;Max_cycle;Signal;HPM_P1;HPM_P2
2022/02/04 00:06:14;;;;;;;;;;;21.20;34.70;;;;;;467110;255;1274;-39
2022/02/04 00:08:17;;;;;;;;;;;21.20;34.70;;;;;;461842;257;2004;-39
2022/02/04 00:24:31;;;;;;;;;;;21.20;34.80;;;;;;453799;258;1181;-39
2022/02/04 00:26:36;;;;;;;;;;;21.10;34.80;;;;;;461647;258;1217;-39
2022/02/04 00:28:45;;;;;;;;;;;21.20;34.80;;;;;;470801;253;2038;-39
2022/02/04 00:30:43;;;;;;;;;;;21.20;34.70;;;;;;466295;255;2357;-39
2022/02/04 00:32:43;;;;;;;;;;;21.20;34.80;;;;;;462477;257;2107;-39
2022/02/04 00:34:46;;;;;;;;;;;21.20;34.80;;;;;;466577;255;2092;-39
2022/02/04 00:36:48;;;;;;;;;;;21.20;34.80;;;;;;462565;257;2270;-39
2022/02/04 00:38:48;;;;;;;;;;;21.20;34.70;;;;;;466443;255;1770;-39
2022/02/04 00:40:49;;;;;;;;;;;21.20;34.70;;;;;;462628;257;2350;-39
2022/02/04 00:42:47;;;;;;;;;;;21.20;34.80;;;;;;466944;255;2308;-39
2022/02/04 00:44:50;;;;;;;;;;;21.10;34.80;;;;;;462782;258;1217;-39
2022/02/04 00:47:00;;;;;;;;;;;21.20;34.80;;;;;;466665;255;3086;-39
2022/02/04 00:49:03;;;;;;;;;;;21.10;34.80;;;;;;462479;257;2027;-39
2022/02/04 00:51:04;;;;;;;;;;;21.10;34.80;;;;;;466802;255;1574;-39
2022/02/04 00:53:08;;;;;;;;;;;21.20;34.90;;;;;;462663;257;1879;-39
2022/02/04 00:55:19;;;;;;;;;;;21.10;34.90;;;;;;466388;255;1926;-39
2022/02/04 00:57:17;;;;;;;;;;;21.10;34.90;;;;;;462221;257;2198;-38
2022/02/04 01:13:37;;;;;;;;;;;21.10;34.90;;;;;;466825;255;1270;-39
2022/02/04 01:27:46;;;;;;;;;;;21.00;35.10;;;;;;466856;255;1360;-39
2022/02/04 01:29:54;;;;;;;;;;;21.00;35.10;;;;;;462650;257;2226;-39
2022/02/04 01:31:47;;;;;;;;;;;21.00;35.10;;;;;;466279;255;2022;-39
2022/02/04 01:33:48;;;;;;;;;;;20.90;35.10;;;;;;462687;257;2350;-39
2022/02/04 01:35:49;;;;;;;;;;;20.90;35.10;;;;;;467209;255;2204;-38
2022/02/04 01:37:51;;;;;;;;;;;20.90;35.10;;;;;;462858;257;1048;-38
2022/02/04 01:39:52;;;;;;;;;;;20.90;35.10;;;;;;471016;253;1200;-39
2022/02/04 01:41:53;;;;;;;;;;;20.90;35.10;;;;;;467083;255;1365;-39
2022/02/04 01:43:55;;;;;;;;;;;20.90;35.10;;;;;;462781;258;1689;-39
2022/02/04 01:45:56;;;;;;;;;;;20.90;35.10;;;;;;471345;253;1221;-39
2022/02/04 01:47:57;;;;;;;;;;;20.90;35.10;;;;;;467278;255;1163;-39
2022/02/04 01:49:59;;;;;;;;;;;20.90;35.10;;;;;;462838;257;1065;-39
2022/02/04 01:52:00;;;;;;;;;;;20.90;35.10;;;;;;466881;255;1155;-39
2022/02/04 01:54:01;;;;;;;;;;;20.90;35.20;;;;;;463013;257;1207;-38
2022/02/04 01:56:03;;;;;;;;;;;20.90;35.10;;;;;;467056;255;2213;-39
2022/02/04 01:58:04;;;;;;;;;;;20.90;35.10;;;;;;462891;257;1441;-39
2022/02/04 02:00:05;;;;;;;;;;;20.90;35.00;;;;;;467288;255;1088;-39
2022/02/04 02:02:07;;;;;;;;;;;20.90;35.00;;;;;;462985;257;1375;-39
2022/02/04 02:04:11;;;;;;;;;;;20.90;35.10;;;;;;467303;255;1218;-39
2022/02/04 02:06:11;;;;;;;;;;;20.90;35.10;;;;;;462605;257;2265;-39
2022/02/04 02:08:11;;;;;;;;;;;20.90;35.00;;;;;;466760;255;2295;-39
2022/02/04 02:10:14;;;;;;;;;;;20.90;35.00;;;;;;462805;258;1223;-39
2022/02/04 02:12:16;;;;;;;;;;;20.90;35.10;;;;;;467037;255;2234;-39
2022/02/04 02:14:16;;;;;;;;;;;20.90;35.00;;;;;;462800;257;2178;-39
2022/02/04 02:16:42;;;;;;;;;;;20.90;35.10;;;;;;466632;255;2652;-39
2022/02/04 02:38:32;;;;;;;;;;;20.90;35.10;;;;;;466752;255;2205;-39
2022/02/04 02:42:32;;;;;;;;;;;20.90;35.00;;;;;;459105;255;1256;-39
2022/02/04 02:44:37;;;;;;;;;;;20.80;35.10;;;;;;462854;257;2292;-39
2022/02/04 02:46:49;;;;;;;;;;;20.80;35.10;;;;;;466523;255;1418;-38
2022/02/04 02:49:05;;;;;;;;;;;20.90;35.00;;;;;;462505;257;2293;-39
2022/02/04 02:51:25;;;;;;;;;;;20.80;35.00;;;;;;466225;255;2555;-39
2022/02/04 02:53:36;;;;;;;;;;;20.90;35.00;;;;;;461523;258;1477;-38
2022/02/04 02:55:25;;;;;;;;;;;20.90;35.00;;;;;;465416;255;1203;-39
2022/02/04 02:59:48;;;;;;;;;;;20.90;35.00;;;;;;466853;255;1056;-39
2022/02/04 03:01:46;;;;;;;;;;;20.90;35.00;;;;;;462368;257;2297;-38
2022/02/04 03:03:48;;;;;;;;;;;21.00;34.90;;;;;;466799;255;1646;-38
2022/02/04 03:05:45;;;;;;;;;;;21.00;34.90;;;;;;462674;257;2341;-38
2022/02/04 03:07:46;;;;;;;;;;;21.00;34.90;;;;;;466839;255;1603;-38
2022/02/04 03:09:48;;;;;;;;;;;21.00;34.90;;;;;;463020;257;1306;-38
2022/02/04 03:11:49;;;;;;;;;;;20.90;35.00;;;;;;466821;255;1382;-38
2022/02/04 03:13:50;;;;;;;;;;;20.90;35.00;;;;;;463055;257;1319;-39
2022/02/04 03:15:59;;;;;;;;;;;20.90;34.90;;;;;;466938;255;1468;-38
2022/02/04 03:18:01;;;;;;;;;;;20.90;34.90;;;;;;462550;257;2191;-38
2022/02/04 03:20:04;;;;;;;;;;;21.00;35.00;;;;;;466572;255;1292;-38
2022/02/04 03:22:05;;;;;;;;;;;20.90;35.00;;;;;;462381;257;2089;-38
2022/02/04 03:24:06;;;;;;;;;;;20.90;35.00;;;;;;470705;253;2435;-38
2022/02/04 03:26:09;;;;;;;;;;;20.90;35.00;;;;;;466473;255;1996;-38
2022/02/04 03:28:11;;;;;;;;;;;20.90;35.00;;;;;;462654;257;2066;-38
2022/02/04 03:30:12;;;;;;;;;;;20.90;35.00;;;;;;466497;255;1953;-38
2022/02/04 03:32:10;;;;;;;;;;;20.90;34.90;;;;;;462511;257;2108;-38
2022/02/04 03:34:10;;;;;;;;;;;20.90;35.00;;;;;;466738;255;2124;-38
2022/02/04 03:36:11;;;;;;;;;;;21.00;35.00;;;;;;463072;257;1296;-38
2022/02/04 03:38:12;;;;;;;;;;;20.90;34.90;;;;;;466949;255;2200;-38
2022/02/04 03:40:14;;;;;;;;;;;21.00;35.00;;;;;;463042;257;1168;-38
2022/02/04 03:42:15;;;;;;;;;;;21.00;35.00;;;;;;466692;255;1461;-38
2022/02/04 03:44:16;;;;;;;;;;;20.90;34.90;;;;;;462817;257;1352;-38
2022/02/04 03:46:18;;;;;;;;;;;20.90;34.90;;;;;;466889;252;1705;-38
2022/02/04 03:48:19;;;;;;;;;;;20.90;35.00;;;;;;463083;257;1328;-39
2022/02/04 03:50:20;;;;;;;;;;;20.90;35.00;;;;;;466961;255;1067;-38
2022/02/04 03:52:23;;;;;;;;;;;20.90;35.00;;;;;;462831;257;1555;-38
2022/02/04 03:54:23;;;;;;;;;;;20.90;35.00;;;;;;466878;255;1635;-38
2022/02/04 03:56:24;;;;;;;;;;;20.90;35.00;;;;;;462752;257;1423;-38
2022/02/04 03:58:26;;;;;;;;;;;20.90;35.00;;;;;;467001;255;2258;-38
2022/02/04 04:00:27;;;;;;;;;;;20.90;35.00;;;;;;462785;258;1370;-38
2022/02/04 04:02:28;;;;;;;;;;;20.90;35.00;;;;;;466797;255;1234;-38
2022/02/04 04:04:32;;;;;;;;;;;20.90;35.00;;;;;;462909;257;1205;-38
2022/02/04 04:06:31;;;;;;;;;;;20.90;35.00;;;;;;466620;255;1357;-38
2022/02/04 04:08:32;;;;;;;;;;;20.90;35.00;;;;;;463211;257;1211;-38
2022/02/04 04:10:39;;;;;;;;;;;20.90;35.00;;;;;;467141;255;1232;-39
2022/02/04 04:12:35;;;;;;;;;;;20.90;35.00;;;;;;462849;257;1912;-38
2022/02/04 04:14:36;;;;;;;;;;;20.90;35.00;;;;;;466879;255;1308;-38
2022/02/04 04:16:38;;;;;;;;;;;20.80;35.00;;;;;;463058;257;1179;-38
2022/02/04 04:18:39;;;;;;;;;;;20.90;35.00;;;;;;471359;253;2116;-38
2022/02/04 04:20:40;;;;;;;;;;;20.90;35.00;;;;;;467212;255;1145;-38
2022/02/04 04:22:42;;;;;;;;;;;20.90;35.00;;;;;;462976;257;1199;-38
2022/02/04 04:24:43;;;;;;;;;;;20.90;35.00;;;;;;466916;255;1300;-38
2022/02/04 04:26:44;;;;;;;;;;;20.90;35.00;;;;;;462702;258;1326;-38
2022/02/04 04:28:46;;;;;;;;;;;20.90;35.00;;;;;;466864;255;1141;-38
2022/02/04 04:30:47;;;;;;;;;;;20.90;35.00;;;;;;463184;257;1379;-38
2022/02/04 04:32:48;;;;;;;;;;;20.80;35.00;;;;;;467216;255;1220;-38
2022/02/04 04:34:50;;;;;;;;;;;20.90;35.00;;;;;;463168;257;1458;-38
2022/02/04 04:36:51;;;;;;;;;;;20.90;35.00;;;;;;466737;255;2142;-38
2022/02/04 04:38:58;;;;;;;;;;;20.90;34.90;;;;;;462888;257;1102;-38
2022/02/04 04:43:38;;;;;;;;;;;20.90;34.90;;;;;;455880;258;1237;-38
2022/02/04 04:45:53;;;;;;;;;;;20.90;35.00;;;;;;461019;258;2317;-38
2022/02/04 05:29:42;;;;;;;;;;;20.80;35.10;;;;;;466771;255;1347;-38
2022/02/04 05:31:43;;;;;;;;;;;20.80;35.20;;;;;;462711;257;1309;-38
2022/02/04 05:33:45;;;;;;;;;;;20.80;35.20;;;;;;466749;255;1329;-38
2022/02/04 05:35:46;;;;;;;;;;;20.70;35.20;;;;;;462763;257;1114;-38
2022/02/04 05:37:50;;;;;;;;;;;20.70;35.20;;;;;;470996;253;2124;-38
2022/02/04 05:39:54;;;;;;;;;;;20.70;35.20;;;;;;466596;255;2365;-38
2022/02/04 05:41:51;;;;;;;;;;;20.70;35.20;;;;;;462413;257;1385;-38
2022/02/04 05:43:54;;;;;;;;;;;20.70;35.20;;;;;;470851;253;1071;-38
2022/02/04 05:46:00;;;;;;;;;;;20.70;35.20;;;;;;466962;255;1445;-38
2022/02/04 05:48:00;;;;;;;;;;;20.70;35.20;;;;;;462436;257;1752;-38
2022/02/04 05:50:11;;;;;;;;;;;20.70;35.20;;;;;;466524;255;1741;-38
2022/02/04 05:52:12;;;;;;;;;;;20.70;35.20;;;;;;462287;257;1952;-38
2022/02/04 05:54:14;;;;;;;;;;;20.70;35.20;;;;;;466346;255;2464;-38
2022/02/04 05:56:19;;;;;;;;;;;20.70;35.20;;;;;;462332;257;2223;-38
2022/02/04 05:58:26;;;;;;;;;;;20.70;35.20;;;;;;465879;255;2243;-38
2022/02/04 06:00:26;;;;;;;;;;;20.70;35.20;;;;;;462006;257;1755;-38
2022/02/04 06:02:28;;;;;;;;;;;20.70;35.20;;;;;;466073;255;2006;-38
2022/02/04 06:04:37;;;;;;;;;;;20.70;35.20;;;;;;462565;257;2341;-38
2022/02/04 06:07:04;;;;;;;;;;;20.70;35.20;;;;;;466391;255;2530;-38
2022/02/04 06:09:28;;;;;;;;;;;20.70;35.20;;;;;;461772;257;2018;-38
2022/02/04 06:11:27;;;;;;;;;;;20.70;35.30;;;;;;465101;255;2152;-38
2022/02/04 06:13:35;;;;;;;;;;;20.70;35.20;;;;;;462033;257;2415;-38
2022/02/04 06:22:39;;;;;;;;;;;20.70;35.20;;;;;;452308;258;1315;-38
2022/02/04 06:24:41;;;;;;;;;;;20.70;35.30;;;;;;461394;258;1173;-38
2022/02/04 06:26:42;;;;;;;;;;;20.70;35.20;;;;;;470612;253;1274;-38
2022/02/04 06:28:43;;;;;;;;;;;20.70;35.30;;;;;;466579;255;1508;-38
2022/02/04 06:30:45;;;;;;;;;;;20.70;35.30;;;;;;462651;257;1275;-38
2022/02/04 06:32:46;;;;;;;;;;;20.70;35.30;;;;;;466642;255;1193;-39
2022/02/04 06:34:47;;;;;;;;;;;20.70;35.30;;;;;;462500;258;1084;-38
2022/02/04 06:36:49;;;;;;;;;;;20.70;35.20;;;;;;466554;252;1328;-38
2022/02/04 06:38:50;;;;;;;;;;;20.70;35.30;;;;;;462587;257;2199;-38
2022/02/04 06:40:51;;;;;;;;;;;20.70;35.30;;;;;;466447;255;1161;-38
2022/02/04 06:42:54;;;;;;;;;;;20.70;35.30;;;;;;462343;258;1161;-38
2022/02/04 06:44:54;;;;;;;;;;;20.70;35.30;;;;;;466291;255;1771;-38
2022/02/04 06:46:55;;;;;;;;;;;20.70;35.30;;;;;;462340;257;1255;-38
2022/02/04 06:48:57;;;;;;;;;;;20.70;35.30;;;;;;466652;255;1131;-38
2022/02/04 06:50:58;;;;;;;;;;;20.60;35.20;;;;;;462460;258;1461;-38
2022/02/04 06:52:59;;;;;;;;;;;20.70;35.30;;;;;;466527;255;1243;-38
2022/02/04 06:55:01;;;;;;;;;;;20.70;35.10;;;;;;462486;258;1080;-38
2022/02/04 06:57:02;;;;;;;;;;;20.70;35.20;;;;;;466559;255;1537;-38
2022/02/04 06:59:03;;;;;;;;;;;20.60;35.20;;;;;;462481;257;2167;-38
2022/02/04 07:01:04;;;;;;;;;;;20.70;35.20;;;;;;466873;255;1236;-38
2022/02/04 07:03:06;;;;;;;;;;;20.70;35.10;;;;;;462452;257;1218;-38
2022/02/04 07:05:11;;;;;;;;;;;20.70;35.20;;;;;;466521;255;1105;-39
2022/02/04 07:07:08;;;;;;;;;;;20.70;35.20;;;;;;462093;257;2233;-38
2022/02/04 07:09:22;;;;;;;;;;;20.70;35.10;;;;;;470534;253;1090;-38
2022/02/04 07:11:39;;;;;;;;;;;20.80;35.10;;;;;;465919;255;1866;-38
2022/02/04 07:13:27;;;;;;;;;;;20.70;35.00;;;;;;461069;257;2420;-38
2022/02/04 07:19:44;;;;;;;;;;;20.80;35.00;;;;;;462279;258;2195;-38
2022/02/04 07:20:05;;;;;;;;;;;20.80;35.00;;;;;;464836;255;1558;-38
2022/02/04 07:22:06;;;;;;;;;;;20.80;35.00;;;;;;462373;257;1189;-38
2022/02/04 07:24:07;;;;;;;;;;;20.80;35.00;;;;;;466405;255;1130;-39
2022/02/04 07:26:09;;;;;;;;;;;20.80;35.00;;;;;;462217;254;1217;-38
2022/02/04 07:28:10;;;;;;;;;;;20.80;35.00;;;;;;466322;255;1245;-38
2022/02/04 07:30:12;;;;;;;;;;;20.80;35.00;;;;;;462364;257;1107;-38
2022/02/04 07:32:17;;;;;;;;;;;20.80;35.00;;;;;;466310;255;2366;-38
2022/02/04 07:34:21;;;;;;;;;;;20.70;35.00;;;;;;462304;257;1866;-38
2022/02/04 07:38:49;;;;;;;;;;;20.70;35.00;;;;;;462291;256;2155;-38
2022/02/04 07:42:58;;;;;;;;;;;20.80;35.00;;;;;;457921;260;1580;-38
2022/02/04 07:44:59;;;;;;;;;;;20.80;35.00;;;;;;461078;258;1343;-38
2022/02/04 07:47:01;;;;;;;;;;;20.80;34.90;;;;;;470395;253;1310;-39
2022/02/04 07:49:02;;;;;;;;;;;20.80;34.90;;;;;;466203;255;1138;-38
2022/02/04 07:51:03;;;;;;;;;;;20.80;34.80;;;;;;462102;258;1415;-38
2022/02/04 07:53:04;;;;;;;;;;;20.80;34.90;;;;;;470149;253;1197;-38
2022/02/04 07:55:06;;;;;;;;;;;20.80;34.90;;;;;;466170;255;1140;-38
2022/02/04 07:57:07;;;;;;;;;;;20.80;34.80;;;;;;462028;257;1358;-38
2022/02/04 07:59:09;;;;;;;;;;;20.80;34.80;;;;;;470308;253;2196;-38
2022/02/04 08:01:10;;;;;;;;;;;20.80;34.80;;;;;;466160;255;2285;-38
2022/02/04 08:03:28;;;;;;;;;;;20.80;34.80;;;;;;462199;258;1155;-38
2022/02/04 08:05:20;;;;;;;;;;;20.80;34.80;;;;;;465207;255;1834;-38
2022/02/04 08:07:18;;;;;;;;;;;20.80;34.80;;;;;;461961;258;1999;-38
2022/02/04 08:09:29;;;;;;;;;;;20.80;34.80;;;;;;466372;255;1150;-38
2022/02/04 08:11:39;;;;;;;;;;;20.80;34.80;;;;;;461596;257;1400;-38
2022/02/04 08:14:00;;;;;;;;;;;20.80;34.80;;;;;;464982;255;2258;-39
2022/02/04 08:15:56;;;;;;;;;;;20.80;34.80;;;;;;461006;257;2375;-38
2022/02/04 08:20:56;;;;;;;;;;;20.80;34.80;;;;;;449236;265;1173;-38
2022/02/04 08:25:25;;;;;;;;;;;20.80;34.70;;;;;;445433;265;1507;-38
2022/02/04 08:29:53;;;;;;;;;;;20.80;34.70;;;;;;457087;260;1234;-39
2022/02/04 08:32:05;;;;;;;;;;;20.80;34.60;;;;;;456823;260;2352;-38
2022/02/04 08:34:23;;;;;;;;;;;20.80;34.60;;;;;;456819;260;2255;-38
2022/02/04 08:36:49;;;;;;;;;;;20.80;34.70;;;;;;456803;260;2336;-38
2022/02/04 08:38:50;;;;;;;;;;;20.80;34.60;;;;;;456848;260;2418;-38
2022/02/04 08:50:27;;;;;;;;;;;20.80;34.60;;;;;;457006;260;1330;-38
2022/02/04 08:52:34;;;;;;;;;;;20.80;34.60;;;;;;465955;253;2364;-38
2022/02/04 08:54:29;;;;;;;;;;;20.80;34.60;;;;;;469750;253;2492;-38
2022/02/04 08:56:38;;;;;;;;;;;20.80;34.60;;;;;;470257;253;2114;-38
2022/02/04 08:58:40;;;;;;;;;;;20.80;34.60;;;;;;470127;252;2203;-38
2022/02/04 09:00:45;;;;;;;;;;;20.80;34.60;;;;;;470056;253;2045;-38
2022/02/04 09:02:43;;;;;;;;;;;20.80;34.60;;;;;;470167;252;2336;-38
2022/02/04 09:04:46;;;;;;;;;;;20.80;34.60;;;;;;470211;253;1637;-38
2022/02/04 09:06:49;;;;;;;;;;;20.90;34.60;;;;;;470240;253;2048;-39
2022/02/04 09:08:48;;;;;;;;;;;20.80;34.60;;;;;;470206;252;2153;-39
2022/02/04 09:10:48;;;;;;;;;;;20.80;34.50;;;;;;470159;253;1880;-38
2022/02/04 09:17:50;;;;;;;;;;;20.90;34.60;;;;;;470411;253;1150;-39
2022/02/04 09:19:45;;;;;;;;;;;20.90;34.50;;;;;;468940;253;2743;-39
2022/02/04 09:22:05;;;;;;;;;;;20.90;34.50;;;;;;469800;253;2021;-39
2022/02/04 09:23:52;;;;;;;;;;;20.90;34.50;;;;;;469245;253;2271;-39
2022/02/04 09:25:54;;;;;;;;;;;20.80;34.50;;;;;;470220;253;1185;-39
2022/02/04 09:27:55;;;;;;;;;;;20.90;34.60;;;;;;470215;253;1260;-39
2022/02/04 09:29:57;;;;;;;;;;;20.80;34.50;;;;;;470481;253;1337;-39
2022/02/04 09:31:58;;;;;;;;;;;20.90;34.50;;;;;;470373;253;1279;-39
2022/02/04 09:34:00;;;;;;;;;;;20.90;34.50;;;;;;470258;253;1081;-39
2022/02/04 09:36:01;;;;;;;;;;;20.90;34.50;;;;;;470197;253;1269;-39
2022/02/04 09:38:03;;;;;;;;;;;20.90;34.50;;;;;;470731;253;1215;-39
2022/02/04 09:40:04;;;;;;;;;;;20.80;34.40;;;;;;470249;253;2203;-39
2022/02/04 09:42:05;;;;;;;;;;;20.90;34.50;;;;;;470324;253;1237;-38
2022/02/04 09:44:07;;;;;;;;;;;20.90;34.50;;;;;;470313;253;1177;-39
2022/02/04 09:46:08;;;;;;;;;;;20.80;34.40;;;;;;470267;253;1512;-39
2022/02/04 09:48:11;;;;;;;;;;;20.90;34.50;;;;;;470191;253;1245;-39
2022/02/04 09:50:14;;;;;;;;;;;20.80;34.40;;;;;;470176;253;2596;-38
2022/02/04 10:09:00;;;;;;;;;;;20.90;34.40;;;;;;464082;253;1262;-38
2022/02/04 10:11:51;;;;;;;;;;;20.80;34.40;;;;;;469965;253;2267;-38
2022/02/04 10:13:31;;;;;;;;;;;20.90;34.40;;;;;;468774;253;1297;-38
2022/02/04 10:15:26;;;;;;;;;;;20.80;34.40;;;;;;469448;253;2119;-38
2022/02/04 10:17:26;;;;;;;;;;;20.80;34.50;;;;;;470016;253;2238;-38
2022/02/04 10:19:28;;;;;;;;;;;20.80;34.30;;;;;;470245;252;2145;-38
2022/02/04 10:21:26;;;;;;;;;;;20.80;34.30;;;;;;470184;252;2199;-38
2022/02/04 10:23:27;;;;;;;;;;;20.80;34.40;;;;;;470510;253;1103;-38
2022/02/04 10:25:28;;;;;;;;;;;20.90;34.40;;;;;;470366;253;1364;-38
2022/02/04 10:27:30;;;;;;;;;;;20.90;34.30;;;;;;470333;253;1731;-39
2022/02/04 10:29:31;;;;;;;;;;;20.90;34.30;;;;;;470244;253;1206;-38
2022/02/04 10:31:32;;;;;;;;;;;20.80;34.30;;;;;;470461;253;1257;-38
2022/02/04 10:33:34;;;;;;;;;;;20.80;34.40;;;;;;470422;253;1241;-38
2022/02/04 10:35:37;;;;;;;;;;;20.90;34.40;;;;;;470294;253;1236;-38
2022/02/04 10:37:39;;;;;;;;;;;20.80;34.30;;;;;;470185;252;2221;-38
2022/02/04 10:39:50;;;;;;;;;;;20.90;34.40;;;;;;470116;253;2682;-38
2022/02/04 10:41:44;;;;;;;;;;;20.90;34.40;;;;;;469521;253;1720;-38
2022/02/04 10:43:57;;;;;;;;;;;20.90;34.30;;;;;;469702;253;2349;-38
2022/02/04 10:45:59;;;;;;;;;;;20.90;34.20;;;;;;469336;253;2305;-39
2022/02/04 10:48:25;;;;;;;;;;;20.90;34.20;;;;;;469837;253;1946;-38
2022/02/04 10:50:17;;;;;;;;;;;20.90;34.20;;;;;;469275;253;2273;-38
2022/02/04 10:52:29;;;;;;;;;;;20.90;34.20;;;;;;469842;253;2207;-38
2022/02/04 10:54:51;;;;;;;;;;;20.90;34.20;;;;;;469640;253;2255;-38
2022/02/04 10:59:23;;;;;;;;;;;20.90;34.20;;;;;;470540;253;2187;-38
2022/02/04 11:01:18;;;;;;;;;;;20.90;34.10;;;;;;469608;253;2063;-39
2022/02/04 11:03:15;;;;;;;;;;;20.90;34.10;;;;;;469934;253;2118;-39
2022/02/04 11:05:22;;;;;;;;;;;20.90;34.10;;;;;;470178;253;1258;-38
2022/02/04 11:07:49;;;;;;;;;;;21.00;34.10;;;;;;470090;252;2287;-38
2022/02/04 11:09:46;;;;;;;;;;;21.00;34.10;;;;;;469167;253;2135;-38
2022/02/04 11:11:59;;;;;;;;;;;21.00;34.00;;;;;;469374;253;2162;-38
2022/02/04 11:33:11;;;;;;;;;;;21.10;33.80;;;;;;470144;253;1197;-38
2022/02/04 11:34:51;;;;;;;;;;;21.10;33.90;;;;;;468948;253;1253;-38
2022/02/04 11:37:04;;;;;;;;;;;21.10;33.80;;;;;;469941;253;2307;-38
2022/02/04 11:43:49;;;;;;;;;;;21.00;33.90;;;;;;470568;253;1116;-38
2022/02/04 11:48:21;;;;;;;;;;;21.00;34.00;;;;;;470517;253;1150;-38
2022/02/04 11:52:38;;;;;;;;;;;21.00;34.00;;;;;;468774;253;1588;-38
2022/02/04 11:54:41;;;;;;;;;;;21.00;34.00;;;;;;470217;252;2217;-38
2022/02/04 11:56:41;;;;;;;;;;;20.90;34.00;;;;;;470281;250;2245;-38
2022/02/04 11:58:42;;;;;;;;;;;20.90;34.10;;;;;;470411;253;1190;-38
2022/02/04 12:00:44;;;;;;;;;;;20.90;34.10;;;;;;470491;253;2190;-38
2022/02/04 12:02:45;;;;;;;;;;;20.90;34.10;;;;;;470228;253;2161;-38
2022/02/04 12:04:46;;;;;;;;;;;20.90;34.10;;;;;;470473;253;1124;-38
2022/02/04 12:06:48;;;;;;;;;;;20.90;34.10;;;;;;470439;253;1160;-38
2022/02/04 12:08:49;;;;;;;;;;;20.90;34.10;;;;;;470527;253;1188;-38
2022/02/04 12:10:51;;;;;;;;;;;20.80;34.10;;;;;;470373;253;1218;-38
2022/02/04 12:12:52;;;;;;;;;;;20.80;34.20;;;;;;470337;253;1236;-38
2022/02/04 12:14:53;;;;;;;;;;;20.80;34.20;;;;;;470384;253;1196;-38
2022/02/04 12:16:55;;;;;;;;;;;20.80;34.20;;;;;;470291;253;1393;-38
2022/02/04 12:18:56;;;;;;;;;;;20.80;34.20;;;;;;470428;253;1138;-38
2022/02/04 12:20:58;;;;;;;;;;;20.80;34.20;;;;;;470506;253;2194;-38
2022/02/04 12:23:03;;;;;;;;;;;20.80;34.20;;;;;;470446;253;1709;-38
2022/02/04 12:25:00;;;;;;;;;;;20.80;34.20;;;;;;470207;253;1882;-38
2022/02/04 12:27:01;;;;;;;;;;;20.80;34.20;;;;;;470457;253;1322;-38
2022/02/04 12:29:05;;;;;;;;;;;20.80;34.20;;;;;;470447;253;1107;-38
2022/02/04 12:31:05;;;;;;;;;;;20.80;34.20;;;;;;470248;253;2494;-38
2022/02/04 12:33:06;;;;;;;;;;;20.80;34.20;;;;;;470357;253;1193;-38
2022/02/04 12:35:07;;;;;;;;;;;20.80;34.30;;;;;;470437;253;1179;-39
2022/02/04 12:37:09;;;;;;;;;;;20.70;34.20;;;;;;470291;253;1272;-39
2022/02/04 12:39:10;;;;;;;;;;;20.70;34.20;;;;;;470416;253;1177;-39
2022/02/04 12:41:12;;;;;;;;;;;20.70;34.20;;;;;;470283;253;2203;-38
2022/02/04 12:43:15;;;;;;;;;;;20.70;34.20;;;;;;470830;253;1132;-38
2022/02/04 12:45:14;;;;;;;;;;;20.70;34.20;;;;;;470281;252;2130;-38
2022/02/04 12:47:16;;;;;;;;;;;20.80;34.20;;;;;;470334;253;1232;-39
2022/02/04 12:49:17;;;;;;;;;;;20.70;34.20;;;;;;470337;253;1513;-38
2022/02/04 12:51:21;;;;;;;;;;;20.70;34.30;;;;;;470394;253;1403;-39
2022/02/04 12:53:19;;;;;;;;;;;20.70;34.20;;;;;;470291;252;2089;-39
2022/02/04 12:55:24;;;;;;;;;;;20.70;34.30;;;;;;470156;253;1438;-39
2022/02/04 12:57:34;;;;;;;;;;;20.70;34.30;;;;;;470217;253;2063;-39
2022/02/04 12:59:54;;;;;;;;;;;20.70;34.30;;;;;;470182;253;2324;-39
2022/02/04 13:02:06;;;;;;;;;;;20.70;34.20;;;;;;469604;253;2125;-39
2022/02/04 13:09:32;;;;;;;;;;;20.70;34.30;;;;;;446889;265;1289;-39
2022/02/04 13:11:11;;;;;;;;;;;20.70;34.20;;;;;;441571;269;2282;-39
2022/02/04 13:13:13;;;;;;;;;;;20.70;34.20;;;;;;446871;265;2319;-39
2022/02/04 13:15:13;;;;;;;;;;;20.70;34.20;;;;;;461115;257;1972;-38
2022/02/04 13:17:14;;;;;;;;;;;20.70;34.20;;;;;;470244;252;1301;-38
2022/02/04 13:19:15;;;;;;;;;;;20.70;34.20;;;;;;466390;255;1199;-38
2022/02/04 13:21:17;;;;;;;;;;;20.70;34.20;;;;;;462207;254;2207;-38
2022/02/04 13:23:18;;;;;;;;;;;20.60;34.20;;;;;;466331;255;1304;-38
2022/02/04 13:25:19;;;;;;;;;;;20.60;34.20;;;;;;462007;257;1318;-38
2022/02/04 13:27:21;;;;;;;;;;;20.60;34.20;;;;;;466208;255;1211;-38
2022/02/04 13:29:22;;;;;;;;;;;20.60;34.20;;;;;;462122;257;1164;-38
2022/02/04 13:31:24;;;;;;;;;;;20.60;34.20;;;;;;466338;255;1205;-38
2022/02/04 13:33:25;;;;;;;;;;;20.60;34.20;;;;;;462071;256;1463;-38
2022/02/04 13:35:26;;;;;;;;;;;20.60;34.30;;;;;;466181;255;1204;-38
2022/02/04 13:37:30;;;;;;;;;;;20.60;34.20;;;;;;462236;256;1308;-39
2022/02/04 13:39:40;;;;;;;;;;;20.60;34.30;;;;;;466079;255;2212;-38
2022/02/04 13:41:39;;;;;;;;;;;20.60;34.30;;;;;;461660;257;2225;-38
2022/02/04 13:43:42;;;;;;;;;;;20.60;34.30;;;;;;465929;255;2128;-38
2022/02/04 13:45:43;;;;;;;;;;;20.60;34.40;;;;;;461867;257;2270;-38
2022/02/04 13:47:46;;;;;;;;;;;20.50;34.40;;;;;;465525;255;2365;-38
2022/02/04 13:49:57;;;;;;;;;;;20.50;34.40;;;;;;461762;257;2133;-38
2022/02/04 13:51:57;;;;;;;;;;;20.50;34.40;;;;;;465506;255;1608;-38
2022/02/04 13:54:02;;;;;;;;;;;20.50;34.50;;;;;;461958;257;1884;-38
2022/02/04 13:56:08;;;;;;;;;;;20.50;34.50;;;;;;465532;255;2369;-38
2022/02/04 13:58:06;;;;;;;;;;;20.50;34.50;;;;;;461416;257;2137;-38
2022/02/04 14:00:03;;;;;;;;;;;20.50;34.50;;;;;;465492;255;2332;-38
2022/02/04 14:02:04;;;;;;;;;;;20.50;34.50;;;;;;461713;255;2294;-38
2022/02/04 14:04:03;;;;;;;;;;;20.40;34.50;;;;;;465772;255;2248;-38
2022/02/04 14:06:04;;;;;;;;;;;20.50;34.50;;;;;;461922;257;2091;-38
2022/02/04 14:08:03;;;;;;;;;;;20.50;34.50;;;;;;466237;255;2077;-39
2022/02/04 14:10:08;;;;;;;;;;;20.50;34.50;;;;;;462511;257;1209;-38
2022/02/04 14:12:06;;;;;;;;;;;20.50;34.50;;;;;;465947;255;2232;-38
2022/02/04 14:14:07;;;;;;;;;;;20.50;34.40;;;;;;462152;257;1215;-38
2022/02/04 14:16:10;;;;;;;;;;;20.50;34.50;;;;;;470256;253;1376;-38
2022/02/04 14:18:11;;;;;;;;;;;20.40;34.40;;;;;;466505;255;2131;-38
2022/02/04 14:20:11;;;;;;;;;;;20.40;34.50;;;;;;462120;256;2202;-38
2022/02/04 14:22:13;;;;;;;;;;;20.40;34.50;;;;;;466192;255;1286;-38
2022/02/04 14:24:14;;;;;;;;;;;20.40;34.50;;;;;;462397;257;1227;-38
2022/02/04 14:26:20;;;;;;;;;;;20.40;34.50;;;;;;466432;253;1163;-38
2022/02/04 14:28:24;;;;;;;;;;;20.40;34.50;;;;;;462212;257;1586;-38
2022/02/04 14:30:24;;;;;;;;;;;20.40;34.50;;;;;;465995;255;2497;-38
2022/02/04 14:32:24;;;;;;;;;;;20.40;34.50;;;;;;461965;257;2230;-38
2022/02/04 14:36:58;;;;;;;;;;;20.40;34.50;;;;;;462262;255;1361;-38
2022/02/04 14:53:01;;;;;;;;;;;21.40;32.90;;;;;;466321;255;1229;-38
2022/02/04 15:00:10;;;;;;;;;;;21.50;32.50;;;;;;466429;255;1195;-38
2022/02/04 15:02:04;;;;;;;;;;;21.60;32.50;;;;;;461588;257;2266;-38
2022/02/04 15:04:06;;;;;;;;;;;21.60;32.40;;;;;;466068;255;2267;-38
2022/02/04 15:06:10;;;;;;;;;;;21.70;32.40;;;;;;462192;257;1311;-39
2022/02/04 15:08:11;;;;;;;;;;;21.70;32.30;;;;;;466041;255;2406;-39
2022/02/04 15:10:13;;;;;;;;;;;21.70;32.30;;;;;;462274;257;2219;-39
2022/02/04 15:12:09;;;;;;;;;;;21.80;32.20;;;;;;465978;255;2272;-39
2022/02/04 15:14:11;;;;;;;;;;;21.80;32.20;;;;;;462323;258;1249;-38
2022/02/04 15:16:11;;;;;;;;;;;21.80;32.20;;;;;;470680;250;2396;-38
2022/02/04 15:18:14;;;;;;;;;;;21.90;32.10;;;;;;466655;255;2253;-39
2022/02/04 15:20:14;;;;;;;;;;;21.90;32.10;;;;;;462298;256;2159;-38
2022/02/04 15:22:17;;;;;;;;;;;21.90;32.00;;;;;;466444;255;1274;-39
2022/02/04 15:24:16;;;;;;;;;;;22.00;32.00;;;;;;462204;257;2156;-39
2022/02/04 15:26:18;;;;;;;;;;;22.00;32.00;;;;;;466268;255;1267;-38
2022/02/04 15:28:35;;;;;;;;;;;22.00;32.00;;;;;;462260;257;1194;-38
2022/02/04 15:30:31;;;;;;;;;;;22.00;31.90;;;;;;465489;255;1734;-39
2022/02/04 15:32:29;;;;;;;;;;;22.00;31.90;;;;;;462080;257;1539;-39
2022/02/04 15:34:28;;;;;;;;;;;22.00;31.80;;;;;;466278;255;2151;-39
2022/02/04 15:36:32;;;;;;;;;;;22.10;31.80;;;;;;462508;257;1329;-38
2022/02/04 15:38:30;;;;;;;;;;;22.10;31.80;;;;;;466172;255;2078;-39
2022/02/04 15:40:32;;;;;;;;;;;22.10;31.80;;;;;;462326;257;2207;-39
2022/02/04 15:42:36;;;;;;;;;;;22.10;31.80;;;;;;466425;255;1098;-39
2022/02/04 15:44:39;;;;;;;;;;;22.10;31.70;;;;;;462272;257;1438;-39
2022/02/04 15:46:46;;;;;;;;;;;22.20;31.70;;;;;;466388;255;1788;-38
2022/02/04 15:49:05;;;;;;;;;;;22.20;31.70;;;;;;462260;257;2418;-38
2022/02/04 15:50:59;;;;;;;;;;;22.20;31.70;;;;;;464929;255;2082;-38